sensor_id;sensor_type;location;lat;lon;timestamp;pressure;altitude;pressure_sealevel;temperature;humidity
62164;BME280;48149;51.132;7.178;2022-07-18T00:00:26;99540.56;;;21.58;43.47
62164;BME280;48149;51.132;7.178;2022-07-18T00:02:51;99543.53;;;21.82;43.21
62164;BME280;48149;51.132;7.178;2022-07-18T00:05:16;99546.13;;;21.57;43.23
62164;BME280;48149;51.132;7.178;2022-07-18T00:07:42;99533.88;;;21.56;43.21
62164;BME280;48149;51.132;7.178;2022-07-18T00:10:07;99538.94;;;21.57;43.52
62164;BME280;48149;51.132;7.178;2022-07-18T00:12:32;99544.03;;;21.64;43.56
62164;BME280;48149;51.132;7.178;2022-07-18T00:14:58;99552.50;;;21.46;43.69
62164;BME280;48149;51.132;7.178;2022-07-18T00:17:24;99544.81;;;21.59;43.43
62164;BME280;48149;51.132;7.178;2022-07-18T00:19:49;99547.47;;;21.59;43.78
62164;BME280;48149;51.132;7.178;2022-07-18T00:22:15;99545.56;;;21.50;44.00
62164;BME280;48149;51.132;7.178;2022-07-18T00:24:40;99547.78;;;21.68;43.53
62164;BME280;48149;51.132;7.178;2022-07-18T00:27:05;99537.38;;;21.61;43.69
62164;BME280;48149;51.132;7.178;2022-07-18T00:29:32;99534.94;;;21.55;43.91
62164;BME280;48149;51.132;7.178;2022-07-18T00:32:01;99542.97;;;21.65;43.71
62164;BME280;48149;51.132;7.178;2022-07-18T00:34:26;99538.94;;;21.62;43.46
62164;BME280;48149;51.132;7.178;2022-07-18T00:36:51;99539.47;;;21.49;43.86
62164;BME280;48149;51.132;7.178;2022-07-18T00:39:16;99532.25;;;21.40;44.11
62164;BME280;48149;51.132;7.178;2022-07-18T00:41:45;99529.53;;;21.35;44.23
62164;BME280;48149;51.132;7.178;2022-07-18T00:44:18;99526.81;;;21.14;44.31
62164;BME280;48149;51.132;7.178;2022-07-18T00:46:43;99530.00;;;21.21;44.69
62164;BME280;48149;51.132;7.178;2022-07-18T00:49:08;99527.19;;;20.96;44.61
62164;BME280;48149;51.132;7.178;2022-07-18T00:51:34;99530.06;;;20.85;45.05
62164;BME280;48149;51.132;7.178;2022-07-18T00:54:01;99518.69;;;20.94;45.24
62164;BME280;48149;51.132;7.178;2022-07-18T00:56:28;99521.88;;;20.96;44.95
62164;BME280;48149;51.132;7.178;2022-07-18T00:58:53;99524.81;;;21.00;44.36
62164;BME280;48149;51.132;7.178;2022-07-18T01:01:19;99520.00;;;20.92;44.84
62164;BME280;48149;51.132;7.178;2022-07-18T01:04:04;99521.94;;;21.06;44.67
62164;BME280;48149;51.132;7.178;2022-07-18T01:06:29;99510.38;;;21.33;44.12
62164;BME280;48149;51.132;7.178;2022-07-18T01:08:55;99507.66;;;21.22;43.83
62164;BME280;48149;51.132;7.178;2022-07-18T01:11:21;99508.78;;;20.90;43.86
62164;BME280;48149;51.132;7.178;2022-07-18T01:13:47;99507.50;;;20.97;44.32
62164;BME280;48149;51.132;7.178;2022-07-18T01:16:14;99503.38;;;20.69;44.92
62164;BME280;48149;51.132;7.178;2022-07-18T01:18:43;99504.09;;;21.02;44.08
62164;BME280;48149;51.132;7.178;2022-07-18T01:21:08;99506.69;;;20.92;43.93
62164;BME280;48149;51.132;7.178;2022-07-18T01:23:34;99506.63;;;21.28;43.98
62164;BME280;48149;51.132;7.178;2022-07-18T01:25:59;99499.34;;;21.09;43.74
62164;BME280;48149;51.132;7.178;2022-07-18T01:28:25;99502.13;;;20.87;44.08
62164;BME280;48149;51.132;7.178;2022-07-18T01:30:50;99502.13;;;20.87;44.21
62164;BME280;48149;51.132;7.178;2022-07-18T01:33:15;99512.81;;;20.92;44.42
62164;BME280;48149;51.132;7.178;2022-07-18T01:35:40;99504.78;;;20.82;44.59
62164;BME280;48149;51.132;7.178;2022-07-18T01:38:06;99505.00;;;20.70;44.34
62164;BME280;48149;51.132;7.178;2022-07-18T01:40:31;99512.03;;;20.97;44.08
62164;BME280;48149;51.132;7.178;2022-07-18T01:42:56;99512.47;;;20.73;44.52
62164;BME280;48149;51.132;7.178;2022-07-18T01:45:22;99508.53;;;20.86;44.15
62164;BME280;48149;51.132;7.178;2022-07-18T01:47:47;99507.22;;;20.89;44.30
62164;BME280;48149;51.132;7.178;2022-07-18T01:50:13;99511.47;;;20.90;44.34
62164;BME280;48149;51.132;7.178;2022-07-18T01:52:38;99504.56;;;20.89;44.13
62164;BME280;48149;51.132;7.178;2022-07-18T01:55:04;99511.50;;;20.95;43.82
62164;BME280;48149;51.132;7.178;2022-07-18T01:57:30;99508.72;;;20.74;44.23
62164;BME280;48149;51.132;7.178;2022-07-18T01:59:55;99508.41;;;20.66;44.31
62164;BME280;48149;51.132;7.178;2022-07-18T02:02:21;99507.41;;;20.77;44.39
62164;BME280;48149;51.132;7.178;2022-07-18T02:04:46;99507.41;;;20.77;44.60
62164;BME280;48149;51.132;7.178;2022-07-18T02:07:29;99507.59;;;20.65;44.76
62164;BME280;48149;51.132;7.178;2022-07-18T02:09:55;99505.00;;;20.75;44.35
62164;BME280;48149;51.132;7.178;2022-07-18T02:12:20;99501.69;;;20.58;44.78
62164;BME280;48149;51.132;7.178;2022-07-18T02:14:46;99506.41;;;20.83;44.79
62164;BME280;48149;51.132;7.178;2022-07-18T02:17:11;99502.78;;;20.57;44.75
62164;BME280;48149;51.132;7.178;2022-07-18T02:19:36;99507.28;;;20.57;45.08
62164;BME280;48149;51.132;7.178;2022-07-18T02:22:02;99509.41;;;20.55;44.89
62164;BME280;48149;51.132;7.178;2022-07-18T02:24:27;99503.59;;;20.58;44.99
62164;BME280;48149;51.132;7.178;2022-07-18T02:26:52;99500.56;;;20.49;45.01
62164;BME280;48149;51.132;7.178;2022-07-18T02:29:20;99488.78;;;20.35;45.43
62164;BME280;48149;51.132;7.178;2022-07-18T02:31:47;99486.41;;;20.39;45.50
62164;BME280;48149;51.132;7.178;2022-07-18T02:34:12;99490.94;;;20.38;45.20
62164;BME280;48149;51.132;7.178;2022-07-18T02:36:39;99492.38;;;20.56;45.35
62164;BME280;48149;51.132;7.178;2022-07-18T02:39:05;99487.53;;;20.48;45.12
62164;BME280;48149;51.132;7.178;2022-07-18T02:41:31;99493.91;;;20.47;45.63
62164;BME280;48149;51.132;7.178;2022-07-18T02:43:57;99489.19;;;20.22;45.73
62164;BME280;48149;51.132;7.178;2022-07-18T02:46:22;99491.97;;;20.32;45.81
62164;BME280;48149;51.132;7.178;2022-07-18T02:48:47;99489.28;;;20.32;45.99
62164;BME280;48149;51.132;7.178;2022-07-18T02:51:12;99495.13;;;20.29;46.24
62164;BME280;48149;51.132;7.178;2022-07-18T02:53:38;99498.47;;;20.19;46.04
62164;BME280;48149;51.132;7.178;2022-07-18T02:56:03;99491.53;;;20.18;46.35
62164;BME280;48149;51.132;7.178;2022-07-18T02:58:29;99494.91;;;20.36;46.21
62164;BME280;48149;51.132;7.178;2022-07-18T03:00:54;99487.34;;;20.22;45.80
62164;BME280;48149;51.132;7.178;2022-07-18T03:03:19;99488.38;;;20.21;46.22
62164;BME280;48149;51.132;7.178;2022-07-18T03:05:44;99492.06;;;20.15;46.36
62164;BME280;48149;51.132;7.178;2022-07-18T03:08:10;99491.97;;;20.05;46.19
62164;BME280;48149;51.132;7.178;2022-07-18T03:10:35;99496.56;;;20.15;46.12
62164;BME280;48149;51.132;7.178;2022-07-18T03:13:00;99495.47;;;20.11;46.27
62164;BME280;48149;51.132;7.178;2022-07-18T03:15:25;99480.19;;;19.96;46.64
62164;BME280;48149;51.132;7.178;2022-07-18T03:17:51;99487.75;;;20.09;46.41
62164;BME280;48149;51.132;7.178;2022-07-18T03:20:16;99490.53;;;19.93;46.40
62164;BME280;48149;51.132;7.178;2022-07-18T03:22:41;99480.28;;;20.06;46.19
62164;BME280;48149;51.132;7.178;2022-07-18T03:25:07;99487.78;;;20.14;46.22
62164;BME280;48149;51.132;7.178;2022-07-18T03:27:32;99484.09;;;20.20;46.08
62164;BME280;48149;51.132;7.178;2022-07-18T03:29:57;99483.19;;;20.37;45.66
62164;BME280;48149;51.132;7.178;2022-07-18T03:32:23;99479.44;;;20.01;45.84
62164;BME280;48149;51.132;7.178;2022-07-18T03:34:48;99471.09;;;20.19;45.85
62164;BME280;48149;51.132;7.178;2022-07-18T03:37:15;99471.28;;;20.12;45.65
62164;BME280;48149;51.132;7.178;2022-07-18T03:39:40;99477.50;;;19.91;46.09
62164;BME280;48149;51.132;7.178;2022-07-18T03:42:06;99484.72;;;20.28;46.01
62164;BME280;48149;51.132;7.178;2022-07-18T03:44:31;99486.63;;;20.00;46.14
62164;BME280;48149;51.132;7.178;2022-07-18T03:46:56;99472.31;;;20.06;46.39
62164;BME280;48149;51.132;7.178;2022-07-18T03:49:22;99465.91;;;20.02;46.42
62164;BME280;48149;51.132;7.178;2022-07-18T03:51:47;99472.84;;;20.08;45.81
62164;BME280;48149;51.132;7.178;2022-07-18T03:54:12;99472.91;;;20.13;45.94
62164;BME280;48149;51.132;7.178;2022-07-18T03:56:37;99472.72;;;20.25;45.37
62164;BME280;48149;51.132;7.178;2022-07-18T03:59:03;99481.75;;;20.24;45.80
62164;BME280;48149;51.132;7.178;2022-07-18T04:01:28;99480.00;;;20.35;45.29
62164;BME280;48149;51.132;7.178;2022-07-18T04:03:54;99475.56;;;20.13;45.69
62164;BME280;48149;51.132;7.178;2022-07-18T04:06:19;99472.72;;;20.25;45.70
62164;BME280;48149;51.132;7.178;2022-07-18T04:08:45;99470.06;;;20.25;45.17
62164;BME280;48149;51.132;7.178;2022-07-18T04:11:11;99474.03;;;20.22;45.39
62164;BME280;48149;51.132;7.178;2022-07-18T04:13:36;99483.97;;;20.32;45.35
62164;BME280;48149;51.132;7.178;2022-07-18T04:16:01;99486.00;;;20.57;45.21
62164;BME280;48149;51.132;7.178;2022-07-18T04:18:28;99485.28;;;20.30;45.35
62164;BME280;48149;51.132;7.178;2022-07-18T04:20:54;99485.63;;;20.43;44.78
62164;BME280;48149;51.132;7.178;2022-07-18T04:23:20;99493.38;;;20.45;45.03
62164;BME280;48149;51.132;7.178;2022-07-18T04:25:45;99497.38;;;20.47;44.95
62164;BME280;48149;51.132;7.178;2022-07-18T04:28:11;99492.97;;;20.63;44.90
62164;BME280;48149;51.132;7.178;2022-07-18T04:30:37;99486.44;;;20.44;45.16
62164;BME280;48149;51.132;7.178;2022-07-18T04:33:03;99481.25;;;20.64;45.02
62164;BME280;48149;51.132;7.178;2022-07-18T04:35:30;99486.75;;;20.52;44.95
62164;BME280;48149;51.132;7.178;2022-07-18T04:37:55;99488.13;;;20.55;44.83
62164;BME280;48149;51.132;7.178;2022-07-18T04:40:21;99483.25;;;20.42;44.91
62164;BME280;48149;51.132;7.178;2022-07-18T04:42:46;99486.28;;;20.60;44.42
62164;BME280;48149;51.132;7.178;2022-07-18T04:45:12;99480.59;;;20.42;45.32
62164;BME280;48149;51.132;7.178;2022-07-18T04:47:38;99482.91;;;20.75;44.97
62164;BME280;48149;51.132;7.178;2022-07-18T04:50:04;99483.94;;;20.64;44.50
62164;BME280;48149;51.132;7.178;2022-07-18T04:52:36;99487.19;;;20.76;44.14
62164;BME280;48149;51.132;7.178;2022-07-18T04:55:02;99485.72;;;20.58;44.76
62164;BME280;48149;51.132;7.178;2022-07-18T04:57:27;99473.19;;;20.96;44.00
62164;BME280;48149;51.132;7.178;2022-07-18T04:59:53;99477.19;;;21.03;44.13
62164;BME280;48149;51.132;7.178;2022-07-18T05:02:18;99478.28;;;21.07;43.91
62164;BME280;48149;51.132;7.178;2022-07-18T05:04:43;99485.47;;;21.07;44.11
62164;BME280;48149;51.132;7.178;2022-07-18T05:07:08;99489.41;;;20.99;43.96
62164;BME280;48149;51.132;7.178;2022-07-18T05:09:36;99482.59;;;21.13;43.89
62164;BME280;48149;51.132;7.178;2022-07-18T05:12:02;99481.53;;;21.14;43.55
62164;BME280;48149;51.132;7.178;2022-07-18T05:14:27;99480.47;;;21.10;43.62
62164;BME280;48149;51.132;7.178;2022-07-18T05:16:56;99473.72;;;21.03;43.78
62164;BME280;48149;51.132;7.178;2022-07-18T05:19:21;99477.72;;;21.00;43.65
62164;BME280;48149;51.132;7.178;2022-07-18T05:21:46;99474.41;;;21.35;43.56
62164;BME280;48149;51.132;7.178;2022-07-18T05:24:12;99483.22;;;21.36;43.08
62164;BME280;48149;51.132;7.178;2022-07-18T05:26:38;99475.81;;;21.58;42.78
62164;BME280;48149;51.132;7.178;2022-07-18T05:29:03;99480.59;;;21.46;42.87
62164;BME280;48149;51.132;7.178;2022-07-18T05:31:29;99477.72;;;21.83;42.29
62164;BME280;48149;51.132;7.178;2022-07-18T05:33:55;99478.22;;;21.79;42.19
62164;BME280;48149;51.132;7.178;2022-07-18T05:36:20;99482.22;;;21.82;41.95
62164;BME280;48149;51.132;7.178;2022-07-18T05:38:45;99476.69;;;21.99;41.93
62164;BME280;48149;51.132;7.178;2022-07-18T05:41:11;99477.47;;;22.24;41.90
62164;BME280;48149;51.132;7.178;2022-07-18T05:43:36;99473.75;;;22.10;41.53
62164;BME280;48149;51.132;7.178;2022-07-18T05:46:02;99465.22;;;21.98;41.91
62164;BME280;48149;51.132;7.178;2022-07-18T05:48:28;99472.41;;;22.23;41.57
62164;BME280;48149;51.132;7.178;2022-07-18T05:50:53;99466.78;;;22.29;41.40
62164;BME280;48149;51.132;7.178;2022-07-18T05:53:18;99470.47;;;22.64;41.00
62164;BME280;48149;51.132;7.178;2022-07-18T05:55:43;99473.13;;;22.84;40.86
62164;BME280;48149;51.132;7.178;2022-07-18T05:58:09;99479.03;;;22.61;41.04
62164;BME280;48149;51.132;7.178;2022-07-18T06:00:34;99476.19;;;23.21;40.40
62164;BME280;48149;51.132;7.178;2022-07-18T06:03:00;99475.78;;;22.79;40.86
62164;BME280;48149;51.132;7.178;2022-07-18T06:05:25;99475.25;;;22.82;41.03
62164;BME280;48149;51.132;7.178;2022-07-18T06:07:51;99478.66;;;22.98;40.68
62164;BME280;48149;51.132;7.178;2022-07-18T06:10:17;99477.59;;;22.99;40.54
62164;BME280;48149;51.132;7.178;2022-07-18T06:12:42;99478.03;;;23.21;39.57
62164;BME280;48149;51.132;7.178;2022-07-18T06:15:13;99476.38;;;23.35;39.82
62164;BME280;48149;51.132;7.178;2022-07-18T06:17:39;99478.81;;;23.31;40.05
62164;BME280;48149;51.132;7.178;2022-07-18T06:20:04;99469.13;;;23.51;39.61
62164;BME280;48149;51.132;7.178;2022-07-18T06:22:30;99475.59;;;23.34;40.06
62164;BME280;48149;51.132;7.178;2022-07-18T06:24:56;99466.19;;;23.47;39.42
62164;BME280;48149;51.132;7.178;2022-07-18T06:27:21;99471.22;;;23.54;39.07
62164;BME280;48149;51.132;7.178;2022-07-18T06:29:46;99459.53;;;23.45;38.87
62164;BME280;48149;51.132;7.178;2022-07-18T06:32:11;99452.38;;;23.74;38.80
62164;BME280;48149;51.132;7.178;2022-07-18T06:34:37;99457.06;;;23.92;38.77
62164;BME280;48149;51.132;7.178;2022-07-18T06:37:02;99453.16;;;24.13;38.43
62164;BME280;48149;51.132;7.178;2022-07-18T06:39:27;99456.03;;;24.22;37.86
62164;BME280;48149;51.132;7.178;2022-07-18T06:41:52;99458.06;;;24.01;39.04
62164;BME280;48149;51.132;7.178;2022-07-18T06:44:19;99450.56;;;24.61;37.91
62164;BME280;48149;51.132;7.178;2022-07-18T06:46:51;99447.13;;;24.79;38.20
62164;BME280;48149;51.132;7.178;2022-07-18T06:49:17;99448.31;;;24.44;37.89
62164;BME280;48149;51.132;7.178;2022-07-18T06:51:42;99450.97;;;24.73;37.96
62164;BME280;48149;51.132;7.178;2022-07-18T06:54:08;99454.47;;;24.45;38.73
62164;BME280;48149;51.132;7.178;2022-07-18T06:56:33;99448.22;;;25.02;37.78
62164;BME280;48149;51.132;7.178;2022-07-18T06:58:58;99451.63;;;25.07;38.16
62164;BME280;48149;51.132;7.178;2022-07-18T07:01:24;99447.91;;;25.45;37.37
62164;BME280;48149;51.132;7.178;2022-07-18T07:03:49;99449.06;;;25.21;37.61
62164;BME280;48149;51.132;7.178;2022-07-18T07:06:15;99448.72;;;25.27;38.28
62164;BME280;48149;51.132;7.178;2022-07-18T07:08:41;99451.41;;;25.65;37.36
62164;BME280;48149;51.132;7.178;2022-07-18T07:11:06;99446.53;;;25.85;37.09
62164;BME280;48149;51.132;7.178;2022-07-18T07:13:31;99455.69;;;25.84;37.15
62164;BME280;48149;51.132;7.178;2022-07-18T07:15:56;99452.41;;;25.69;37.05
62164;BME280;48149;51.132;7.178;2022-07-18T07:18:22;99467.69;;;25.87;37.38
62164;BME280;48149;51.132;7.178;2022-07-18T07:20:47;99455.31;;;26.05;36.50
62164;BME280;48149;51.132;7.178;2022-07-18T07:23:12;99455.59;;;25.71;36.05
62164;BME280;48149;51.132;7.178;2022-07-18T07:25:38;99455.31;;;26.05;35.81
62164;BME280;48149;51.132;7.178;2022-07-18T07:28:04;99451.56;;;26.38;34.92
62164;BME280;48149;51.132;7.178;2022-07-18T07:30:30;99456.22;;;26.19;35.07
62164;BME280;48149;51.132;7.178;2022-07-18T07:32:56;99445.03;;;26.12;34.95
62164;BME280;48149;51.132;7.178;2022-07-18T07:35:21;99449.22;;;26.18;35.09
62164;BME280;48149;51.132;7.178;2022-07-18T07:37:48;99444.00;;;26.40;34.57
62164;BME280;48149;51.132;7.178;2022-07-18T07:40:13;99448.31;;;26.95;34.09
62164;BME280;48149;51.132;7.178;2022-07-18T07:42:39;99443.53;;;26.92;33.70
62164;BME280;48149;51.132;7.178;2022-07-18T07:45:04;99444.66;;;27.41;33.18
62164;BME280;48149;51.132;7.178;2022-07-18T07:47:30;99441.78;;;27.37;33.98
62164;BME280;48149;51.132;7.178;2022-07-18T07:49:55;99445.38;;;27.46;33.08
62164;BME280;48149;51.132;7.178;2022-07-18T07:52:21;99441.53;;;27.12;33.93
62164;BME280;48149;51.132;7.178;2022-07-18T07:54:48;99443.03;;;27.67;33.43
62164;BME280;48149;51.132;7.178;2022-07-18T07:57:14;99441.28;;;27.93;33.91
62164;BME280;48149;51.132;7.178;2022-07-18T07:59:40;99444.41;;;27.15;32.40
62164;BME280;48149;51.132;7.178;2022-07-18T08:02:05;99435.00;;;27.53;33.18
62164;BME280;48149;51.132;7.178;2022-07-18T08:04:32;99425.13;;;27.93;32.64
62164;BME280;48149;51.132;7.178;2022-07-18T08:06:57;99420.88;;;27.70;32.63
62164;BME280;48149;51.132;7.178;2022-07-18T08:09:22;99434.38;;;27.79;33.37
62164;BME280;48149;51.132;7.178;2022-07-18T08:11:48;99431.31;;;28.16;33.32
62164;BME280;48149;51.132;7.178;2022-07-18T08:14:13;99427.94;;;27.30;33.66
62164;BME280;48149;51.132;7.178;2022-07-18T08:16:38;99428.16;;;27.92;33.30
62164;BME280;48149;51.132;7.178;2022-07-18T08:19:04;99431.97;;;27.99;32.28
62164;BME280;48149;51.132;7.178;2022-07-18T08:21:29;99437.13;;;28.40;31.89
62164;BME280;48149;51.132;7.178;2022-07-18T08:23:55;99431.34;;;28.95;31.75
62164;BME280;48149;51.132;7.178;2022-07-18T08:26:23;99441.56;;;28.36;31.43
62164;BME280;48149;51.132;7.178;2022-07-18T08:28:48;99449.09;;;28.56;32.25
62164;BME280;48149;51.132;7.178;2022-07-18T08:31:13;99442.34;;;28.37;31.09
62164;BME280;48149;51.132;7.178;2022-07-18T08:33:40;99437.28;;;28.75;32.34
62164;BME280;48149;51.132;7.178;2022-07-18T08:36:06;99447.47;;;29.34;32.88
62164;BME280;48149;51.132;7.178;2022-07-18T08:38:33;99436.03;;;29.37;31.95
62164;BME280;48149;51.132;7.178;2022-07-18T08:40:58;99434.19;;;28.90;31.34
62164;BME280;48149;51.132;7.178;2022-07-18T08:43:26;99436.00;;;29.29;31.51
62164;BME280;48149;51.132;7.178;2022-07-18T08:45:55;99434.66;;;29.00;31.47
62164;BME280;48149;51.132;7.178;2022-07-18T08:48:21;99433.28;;;29.20;30.45
62164;BME280;48149;51.132;7.178;2022-07-18T08:50:47;99436.28;;;29.10;30.07
62164;BME280;48149;51.132;7.178;2022-07-18T08:53:13;99432.59;;;28.89;30.58
62164;BME280;48149;51.132;7.178;2022-07-18T08:55:39;99436.19;;;28.76;30.67
62164;BME280;48149;51.132;7.178;2022-07-18T08:58:05;99426.91;;;28.59;30.91
62164;BME280;48149;51.132;7.178;2022-07-18T09:00:30;99424.41;;;29.20;30.82
62164;BME280;48149;51.132;7.178;2022-07-18T09:02:56;99432.97;;;29.22;29.79
62164;BME280;48149;51.132;7.178;2022-07-18T09:05:22;99426.19;;;29.67;29.40
62164;BME280;48149;51.132;7.178;2022-07-18T09:07:48;99426.50;;;30.00;29.72
62164;BME280;48149;51.132;7.178;2022-07-18T09:10:13;99425.06;;;30.02;29.78
62164;BME280;48149;51.132;7.178;2022-07-18T09:12:38;99423.81;;;29.74;29.85
62164;BME280;48149;51.132;7.178;2022-07-18T09:15:05;99415.81;;;30.12;30.33
62164;BME280;48149;51.132;7.178;2022-07-18T09:17:31;99425.91;;;30.41;30.17
62164;BME280;48149;51.132;7.178;2022-07-18T09:22:28;99420.97;;;31.10;28.75
62164;BME280;48149;51.132;7.178;2022-07-18T09:25:07;99424.81;;;31.30;28.62
62164;BME280;48149;51.132;7.178;2022-07-18T09:27:34;99419.47;;;30.92;28.20
62164;BME280;48149;51.132;7.178;2022-07-18T09:30:11;99422.25;;;30.75;29.00
62164;BME280;48149;51.132;7.178;2022-07-18T09:32:37;99425.91;;;30.79;27.87
62164;BME280;48149;51.132;7.178;2022-07-18T09:35:06;99422.28;;;31.04;27.48
62164;BME280;48149;51.132;7.178;2022-07-18T09:37:32;99419.47;;;30.92;27.65
62164;BME280;48149;51.132;7.178;2022-07-18T09:40:19;99424.31;;;31.28;28.18
62164;BME280;48149;51.132;7.178;2022-07-18T09:42:43;99425.81;;;31.79;27.45
62164;BME280;48149;51.132;7.178;2022-07-18T09:45:13;99425.16;;;31.82;27.24
62164;BME280;48149;51.132;7.178;2022-07-18T09:47:52;99427.44;;;30.88;26.61
62164;BME280;48149;51.132;7.178;2022-07-18T09:50:25;99431.94;;;31.88;27.06
62164;BME280;48149;51.132;7.178;2022-07-18T09:52:57;99427.03;;;31.69;26.53
62164;BME280;48149;51.132;7.178;2022-07-18T09:55:23;99423.94;;;31.58;26.21
62164;BME280;48149;51.132;7.178;2022-07-18T09:58:05;99415.16;;;33.00;25.19
62164;BME280;48149;51.132;7.178;2022-07-18T10:00:32;99418.41;;;35.64;23.64
62164;BME280;48149;51.132;7.178;2022-07-18T10:02:58;99405.94;;;37.00;21.23
62164;BME280;48149;51.132;7.178;2022-07-18T10:05:35;99408.22;;;37.90;20.90
62164;BME280;48149;51.132;7.178;2022-07-18T10:08:02;99411.31;;;39.63;19.15
62164;BME280;48149;51.132;7.178;2022-07-18T10:10:28;99406.16;;;39.44;18.90
62164;BME280;48149;51.132;7.178;2022-07-18T10:12:56;99408.22;;;38.85;20.02
62164;BME280;48149;51.132;7.178;2022-07-18T10:15:22;99410.84;;;39.40;19.90
62164;BME280;48149;51.132;7.178;2022-07-18T10:17:48;99401.84;;;37.83;19.81
62164;BME280;48149;51.132;7.178;2022-07-18T10:20:13;99399.72;;;40.12;18.60
62164;BME280;48149;51.132;7.178;2022-07-18T10:22:40;99396.47;;;38.34;18.49
62164;BME280;48149;51.132;7.178;2022-07-18T10:25:12;99401.59;;;41.04;18.29
62164;BME280;48149;51.132;7.178;2022-07-18T10:27:47;99401.84;;;41.41;17.24
62164;BME280;48149;51.132;7.178;2022-07-18T10:30:13;99399.69;;;42.32;17.04
62164;BME280;48149;51.132;7.178;2022-07-18T10:32:39;99406.72;;;40.03;19.16
62164;BME280;48149;51.132;7.178;2022-07-18T10:35:04;99410.28;;;40.17;17.60
62164;BME280;48149;51.132;7.178;2022-07-18T10:37:32;99403.38;;;41.49;17.54
62164;BME280;48149;51.132;7.178;2022-07-18T10:40:20;99401.19;;;40.98;17.81
62164;BME280;48149;51.132;7.178;2022-07-18T10:42:44;99396.50;;;39.82;19.37
62164;BME280;48149;51.132;7.178;2022-07-18T10:47:54;99394.22;;;40.33;17.62
62164;BME280;48149;51.132;7.178;2022-07-18T10:50:19;99396.94;;;40.02;17.63
62164;BME280;48149;51.132;7.178;2022-07-18T11:00:24;99390.50;;;41.25;17.74
62164;BME280;48149;51.132;7.178;2022-07-18T11:03:10;99391.47;;;43.07;16.48
62164;BME280;48149;51.132;7.178;2022-07-18T11:05:41;99394.81;;;43.55;16.28
62164;BME280;48149;51.132;7.178;2022-07-18T11:16:02;99384.91;;;41.53;17.25
62164;BME280;48149;51.132;7.178;2022-07-18T11:18:34;99385.84;;;41.15;17.64
62164;BME280;48149;51.132;7.178;2022-07-18T11:21:18;99378.06;;;41.75;16.82
62164;BME280;48149;51.132;7.178;2022-07-18T11:23:44;99372.81;;;41.98;17.13
62164;BME280;48149;51.132;7.178;2022-07-18T11:26:14;99374.50;;;42.74;16.41
62164;BME280;48149;51.132;7.178;2022-07-18T11:28:40;99368.13;;;42.43;16.38
62164;BME280;48149;51.132;7.178;2022-07-18T11:31:07;99377.09;;;43.83;15.61
62164;BME280;48149;51.132;7.178;2022-07-18T11:33:34;99372.94;;;43.94;14.98
62164;BME280;48149;51.132;7.178;2022-07-18T11:38:28;99361.06;;;42.42;16.46
62164;BME280;48149;51.132;7.178;2022-07-18T11:40:53;99366.75;;;43.33;16.38
62164;BME280;48149;51.132;7.178;2022-07-18T11:43:23;99362.38;;;42.68;16.83
62164;BME280;48149;51.132;7.178;2022-07-18T11:45:58;99354.47;;;42.74;16.64
62164;BME280;48149;51.132;7.178;2022-07-18T11:48:24;99359.31;;;42.15;17.18
62164;BME280;48149;51.132;7.178;2022-07-18T11:50:49;99356.63;;;43.53;16.21
62164;BME280;48149;51.132;7.178;2022-07-18T11:53:14;99363.88;;;44.44;15.91
62164;BME280;48149;51.132;7.178;2022-07-18T11:55:40;99350.28;;;40.65;17.91
62164;BME280;48149;51.132;7.178;2022-07-18T11:58:09;99349.66;;;42.81;16.43
62164;BME280;48149;51.132;7.178;2022-07-18T12:00:35;99351.13;;;44.50;15.12
62164;BME280;48149;51.132;7.178;2022-07-18T12:03:05;99342.91;;;42.48;16.28
62164;BME280;48149;51.132;7.178;2022-07-18T12:05:31;99339.06;;;42.80;17.46
62164;BME280;48149;51.132;7.178;2022-07-18T12:07:56;99336.09;;;40.84;18.01
62164;BME280;48149;51.132;7.178;2022-07-18T12:10:22;99331.28;;;43.62;16.00
62164;BME280;48149;51.132;7.178;2022-07-18T12:12:47;99329.97;;;42.45;17.15
62164;BME280;48149;51.132;7.178;2022-07-18T12:15:13;99335.03;;;42.06;16.13
62164;BME280;48149;51.132;7.178;2022-07-18T12:17:46;99342.09;;;43.76;15.85
62164;BME280;48149;51.132;7.178;2022-07-18T12:22:37;99337.00;;;44.25;15.80
62164;BME280;48149;51.132;7.178;2022-07-18T12:25:16;99323.13;;;42.94;16.97
62164;BME280;48149;51.132;7.178;2022-07-18T12:27:41;99326.19;;;44.53;15.38
62164;BME280;48149;51.132;7.178;2022-07-18T12:32:48;99323.31;;;43.68;16.40
62164;BME280;48149;51.132;7.178;2022-07-18T12:37:50;99312.09;;;42.94;16.89
62164;BME280;48149;51.132;7.178;2022-07-18T12:40:16;99326.25;;;44.30;16.47
62164;BME280;48149;51.132;7.178;2022-07-18T12:42:41;99317.66;;;44.25;16.19
62164;BME280;48149;51.132;7.178;2022-07-18T12:45:08;99320.91;;;43.96;16.57
62164;BME280;48149;51.132;7.178;2022-07-18T12:47:33;99313.81;;;45.89;14.58
62164;BME280;48149;51.132;7.178;2022-07-18T12:49:59;99320.56;;;42.80;16.67
62164;BME280;48149;51.132;7.178;2022-07-18T12:52:24;99307.94;;;44.99;14.98
62164;BME280;48149;51.132;7.178;2022-07-18T12:54:50;99312.13;;;42.57;16.31
62164;BME280;48149;51.132;7.178;2022-07-18T12:57:15;99303.31;;;43.07;16.36
62164;BME280;48149;51.132;7.178;2022-07-18T12:59:41;99300.72;;;42.21;17.54
62164;BME280;48149;51.132;7.178;2022-07-18T13:02:06;99290.88;;;41.72;17.68
62164;BME280;48149;51.132;7.178;2022-07-18T13:04:32;99296.44;;;42.13;17.06
62164;BME280;48149;51.132;7.178;2022-07-18T13:06:57;99293.53;;;42.31;18.61
62164;BME280;48149;51.132;7.178;2022-07-18T13:09:22;99291.09;;;40.50;19.36
62164;BME280;48149;51.132;7.178;2022-07-18T13:11:48;99291.88;;;40.58;19.03
62164;BME280;48149;51.132;7.178;2022-07-18T13:14:14;99280.97;;;42.30;18.07
62164;BME280;48149;51.132;7.178;2022-07-18T13:16:40;99279.47;;;43.73;16.32
62164;BME280;48149;51.132;7.178;2022-07-18T13:19:08;99287.31;;;44.01;16.15
62164;BME280;48149;51.132;7.178;2022-07-18T13:21:33;99286.84;;;42.32;16.84
62164;BME280;48149;51.132;7.178;2022-07-18T13:23:59;99284.59;;;44.21;16.86
62164;BME280;48149;51.132;7.178;2022-07-18T13:26:24;99279.66;;;44.52;15.54